createdAt,value
2022-10-26T00:01:11.807Z,16.55
2022-10-26T00:03:43.708Z,16.80
2022-10-26T00:06:14.882Z,16.70
2022-10-26T00:08:42.496Z,16.50
2022-10-26T00:11:10.993Z,16.23
2022-10-26T00:13:39.530Z,16.67
2022-10-26T00:16:15.359Z,17.00
2022-10-26T00:18:43.743Z,16.02
2022-10-26T00:21:11.289Z,16.38
2022-10-26T00:23:39.572Z,17.73
2022-10-26T00:26:07.116Z,17.80
2022-10-26T00:28:34.601Z,17.42
2022-10-26T00:31:07.534Z,18.38
2022-10-26T00:33:35.011Z,18.13
2022-10-26T00:36:02.205Z,19.65
2022-10-26T00:38:29.762Z,19.33
2022-10-26T00:43:25.134Z,19.77
2022-10-26T00:45:53.837Z,19.00
2022-10-26T00:48:35.505Z,18.88
2022-10-26T00:51:09.119Z,19.83
2022-10-26T00:53:37.618Z,20.00
2022-10-26T00:56:05.088Z,18.52
2022-10-26T00:58:32.781Z,19.77
2022-10-26T01:00:59.795Z,19.50
2022-10-26T01:03:28.459Z,19.52
2022-10-26T01:05:58.954Z,20.73
2022-10-26T01:08:28.676Z,19.87
2022-10-26T01:10:57.818Z,20.92
2022-10-26T01:13:28.404Z,21.27
2022-10-26T01:15:55.454Z,21.40
2022-10-26T01:18:41.636Z,21.45
2022-10-26T01:21:20.943Z,20.85
2022-10-26T01:23:57.005Z,20.35
2022-10-26T01:26:49.867Z,20.33
2022-10-26T01:30:02.253Z,20.13
2022-10-26T01:33:03.159Z,20.85
2022-10-26T01:35:34.512Z,20.27
2022-10-26T01:38:11.013Z,21.23
2022-10-26T01:40:45.615Z,21.15
2022-10-26T01:43:14.773Z,22.35
2022-10-26T01:45:46.487Z,22.10
2022-10-26T01:50:45.482Z,22.35
2022-10-26T01:53:15.362Z,22.10
2022-10-26T01:55:49.062Z,22.13
2022-10-26T01:58:25.094Z,21.35
2022-10-26T02:01:38.597Z,21.73
2022-10-26T02:04:30.233Z,21.33
2022-10-26T02:09:55.936Z,21.48
2022-10-26T02:12:57.602Z,20.92
2022-10-26T02:15:54.743Z,21.45
2022-10-26T02:18:27.668Z,20.20
2022-10-26T02:21:01.318Z,19.48
2022-10-26T02:23:32.738Z,18.88
2022-10-26T02:26:01.299Z,18.23
2022-10-26T02:28:34.310Z,17.95
2022-10-26T02:31:03.867Z,17.23
2022-10-26T02:33:35.262Z,17.80
2022-10-26T02:36:05.614Z,17.83
2022-10-26T02:38:34.569Z,17.63
2022-10-26T02:41:03.873Z,17.15
2022-10-26T02:43:39.145Z,19.50
2022-10-26T02:46:15.363Z,18.35
2022-10-26T02:48:42.952Z,19.85
2022-10-26T02:51:15.719Z,19.17
2022-10-26T02:54:15.252Z,19.73
2022-10-26T02:56:55.646Z,20.17
2022-10-26T02:59:28.005Z,21.17
2022-10-26T03:01:55.891Z,20.30
2022-10-26T03:04:30.027Z,20.27
2022-10-26T03:06:57.222Z,20.75
2022-10-26T03:09:25.561Z,20.33
2022-10-26T03:11:53.593Z,19.20
2022-10-26T03:14:20.811Z,19.48
2022-10-26T03:16:47.764Z,20.10
2022-10-26T03:19:15.103Z,20.35
2022-10-26T03:21:42.485Z,19.67
2022-10-26T03:24:10.180Z,19.65
2022-10-26T03:26:37.323Z,19.95
2022-10-26T03:29:04.627Z,21.75
2022-10-26T03:31:31.444Z,20.85
2022-10-26T03:33:58.742Z,21.15
2022-10-26T03:36:25.947Z,21.65
2022-10-26T03:38:53.053Z,22.20
2022-10-26T03:41:20.077Z,21.48
2022-10-26T03:43:48.530Z,21.80
2022-10-26T03:46:15.597Z,20.52
2022-10-26T03:48:42.680Z,20.20
2022-10-26T03:51:09.641Z,20.70
2022-10-26T03:53:36.773Z,20.27
2022-10-26T03:56:03.730Z,21.23
2022-10-26T03:58:30.869Z,19.42
2022-10-26T04:00:57.744Z,20.45
2022-10-26T04:03:24.925Z,20.10
2022-10-26T04:05:52.288Z,21.20
2022-10-26T04:08:19.708Z,21.45
2022-10-26T04:10:47.572Z,20.67
2022-10-26T04:13:14.929Z,21.92
2022-10-26T04:15:41.935Z,21.90
2022-10-26T04:18:09.543Z,22.55
2022-10-26T04:20:36.880Z,23.45
2022-10-26T04:23:06.777Z,22.02
2022-10-26T04:25:34.341Z,22.38
2022-10-26T04:28:03.924Z,20.83
2022-10-26T04:30:32.363Z,21.77
2022-10-26T04:32:59.674Z,21.02
2022-10-26T04:35:27.591Z,21.50
2022-10-26T04:38:06.914Z,21.67
2022-10-26T04:40:35.359Z,21.67
2022-10-26T04:43:02.715Z,23.17
2022-10-26T04:45:31.172Z,22.67
2022-10-26T04:48:05.137Z,21.63
2022-10-26T04:50:32.277Z,20.95
2022-10-26T04:52:59.594Z,21.65
2022-10-26T04:55:26.829Z,21.45
2022-10-26T04:57:56.041Z,21.73
2022-10-26T05:00:25.783Z,21.77
2022-10-26T05:02:59.364Z,20.83
2022-10-26T05:05:27.043Z,20.95
2022-10-26T05:07:56.264Z,21.92
2022-10-26T05:10:24.945Z,21.85
2022-10-26T05:12:57.088Z,24.10
2022-10-26T05:15:24.296Z,21.00
2022-10-26T05:18:00.021Z,22.42
2022-10-26T05:20:31.036Z,22.38
2022-10-26T05:23:01.242Z,21.95
2022-10-26T05:25:30.059Z,22.27
2022-10-26T05:28:01.404Z,21.77
2022-10-26T05:30:29.883Z,22.45
2022-10-26T05:32:59.926Z,22.23
2022-10-26T05:35:28.511Z,20.65
2022-10-26T05:37:56.310Z,21.42
2022-10-26T05:40:24.524Z,21.27
2022-10-26T05:42:53.153Z,19.33
2022-10-26T05:45:20.308Z,20.00
2022-10-26T05:47:47.981Z,20.38
2022-10-26T05:50:15.290Z,18.38
2022-10-26T05:52:45.072Z,17.70
2022-10-26T05:55:15.395Z,18.55
2022-10-26T05:57:43.926Z,19.33
2022-10-26T06:00:23.276Z,19.48
2022-10-26T06:03:08.698Z,17.15
2022-10-26T06:05:45.254Z,18.27
2022-10-26T06:08:12.973Z,18.95
2022-10-26T06:10:41.728Z,18.02
2022-10-26T06:13:09.543Z,17.85
2022-10-26T06:16:09.986Z,17.58
2022-10-26T06:18:46.252Z,18.23
2022-10-26T06:21:26.876Z,17.88
2022-10-26T06:24:08.888Z,17.70
2022-10-26T06:26:45.466Z,16.67
2022-10-26T06:29:31.629Z,16.33
2022-10-26T06:31:59.241Z,15.75
2022-10-26T06:34:33.109Z,15.52
2022-10-26T06:37:01.848Z,15.70
2022-10-26T06:39:36.099Z,12.77
2022-10-26T06:42:03.629Z,13.48
2022-10-26T06:44:31.731Z,13.55
2022-10-26T06:47:19.729Z,13.68
2022-10-26T06:49:59.474Z,14.02
2022-10-26T06:52:44.996Z,13.70
2022-10-26T06:55:17.319Z,13.57
2022-10-26T06:57:45.133Z,13.93
2022-10-26T07:00:25.462Z,14.52
2022-10-26T07:02:52.974Z,14.57
2022-10-26T07:05:21.241Z,15.27
2022-10-26T07:07:48.945Z,15.82
2022-10-26T07:10:16.718Z,15.80
2022-10-26T07:12:44.666Z,15.73
2022-10-26T07:15:12.300Z,15.88
2022-10-26T07:17:48.190Z,16.10
2022-10-26T07:20:18.176Z,15.02
2022-10-26T07:22:45.219Z,16.58
2022-10-26T07:25:12.771Z,16.80
2022-10-26T07:27:39.844Z,17.08
2022-10-26T07:30:08.565Z,17.42
2022-10-26T07:32:36.638Z,17.33
2022-10-26T07:35:05.005Z,16.17
2022-10-26T07:37:32.289Z,15.77
2022-10-26T07:40:04.030Z,15.63
2022-10-26T07:42:34.692Z,16.30
2022-10-26T07:45:02.351Z,16.77
2022-10-26T07:47:29.323Z,15.82
2022-10-26T07:49:56.755Z,15.48
2022-10-26T07:52:24.249Z,15.32
2022-10-26T07:54:51.475Z,15.45
2022-10-26T07:57:18.709Z,14.48
2022-10-26T07:59:46.000Z,13.80
2022-10-26T08:02:13.931Z,13.45
2022-10-26T08:04:41.533Z,14.18
2022-10-26T08:07:08.461Z,13.55
2022-10-26T08:09:35.925Z,13.80
2022-10-26T08:12:02.853Z,12.13
2022-10-26T08:14:30.042Z,14.23
2022-10-26T08:16:57.241Z,16.27
2022-10-26T08:19:24.650Z,17.38
2022-10-26T08:21:51.602Z,16.98
2022-10-26T08:24:19.369Z,14.88
2022-10-26T08:26:47.546Z,13.05
2022-10-26T08:29:14.752Z,13.57
2022-10-26T08:31:41.993Z,13.75
2022-10-26T08:34:09.233Z,15.55
2022-10-26T08:36:36.692Z,33.83
2022-10-26T08:39:04.863Z,50.42
2022-10-26T08:41:41.156Z,48.60
2022-10-26T08:44:14.294Z,22.02
2022-10-26T08:46:47.081Z,61.35
2022-10-26T08:49:24.352Z,42.15
2022-10-26T08:51:56.265Z,18.95
2022-10-26T08:54:29.177Z,14.55
2022-10-26T08:57:00.818Z,13.77
2022-10-26T08:59:38.954Z,14.07
2022-10-26T09:02:13.239Z,13.23
2022-10-26T09:04:40.981Z,14.23
2022-10-26T09:07:20.489Z,14.38
2022-10-26T09:10:00.675Z,14.43
2022-10-26T09:12:44.047Z,13.48
2022-10-26T09:15:31.787Z,14.48
2022-10-26T09:18:02.106Z,13.23
2022-10-26T09:20:44.041Z,15.18
2022-10-26T09:23:43.711Z,13.63
2022-10-26T09:26:22.064Z,15.27
2022-10-26T09:28:49.843Z,14.80
2022-10-26T09:31:18.118Z,14.30
2022-10-26T09:33:45.091Z,17.05
2022-10-26T09:36:21.590Z,14.90
2022-10-26T09:38:51.271Z,15.48
2022-10-26T09:41:31.659Z,16.77
2022-10-26T09:44:18.553Z,15.02
2022-10-26T09:46:57.822Z,11.85
2022-10-26T09:49:33.795Z,12.63
2022-10-26T09:52:01.731Z,9.68
2022-10-26T09:54:29.827Z,10.23
2022-10-26T09:57:00.276Z,10.93
2022-10-26T09:59:27.939Z,11.15
2022-10-26T10:01:55.933Z,9.10
2022-10-26T10:04:24.362Z,10.25
2022-10-26T10:07:13.070Z,9.80
2022-10-26T10:09:40.279Z,9.77
2022-10-26T10:12:20.561Z,9.57
2022-10-26T10:14:59.128Z,10.38
2022-10-26T10:17:26.775Z,9.55
2022-10-26T10:19:53.958Z,9.07
2022-10-26T10:22:25.814Z,10.23
2022-10-26T10:27:24.121Z,9.80
2022-10-26T10:29:53.307Z,10.50
2022-10-26T10:32:34.074Z,11.40
2022-10-26T10:35:23.316Z,11.70
2022-10-26T10:37:51.771Z,10.52
2022-10-26T10:40:22.224Z,12.45
2022-10-26T10:42:51.657Z,12.40
2022-10-26T10:45:23.457Z,12.95
2022-10-26T10:50:31.123Z,12.77
2022-10-26T10:53:26.658Z,13.65
2022-10-26T10:56:12.486Z,12.75
2022-10-26T10:59:18.152Z,13.27
2022-10-26T11:02:16.520Z,14.10
2022-10-26T11:04:53.017Z,11.75
2022-10-26T11:07:21.763Z,11.35
2022-10-26T11:15:14.377Z,10.60
2022-10-26T11:17:53.393Z,11.52
2022-10-26T11:20:24.601Z,10.45
2022-10-26T11:23:00.719Z,10.90
2022-10-26T11:25:50.289Z,10.73
2022-10-26T11:28:49.481Z,10.27
2022-10-26T11:31:29.401Z,10.07
2022-10-26T11:34:18.182Z,10.45
2022-10-26T11:36:50.642Z,10.15
2022-10-26T11:39:21.018Z,10.85
2022-10-26T11:42:03.284Z,10.80
2022-10-26T11:44:38.071Z,10.70
2022-10-26T11:47:18.679Z,10.45
2022-10-26T11:50:06.665Z,10.57
2022-10-26T11:53:12.972Z,10.23
2022-10-26T11:55:41.095Z,10.77
2022-10-26T11:58:11.854Z,11.32
2022-10-26T12:00:51.900Z,12.73
2022-10-26T12:03:25.149Z,11.38
2022-10-26T12:05:52.445Z,11.23
2022-10-26T12:08:31.111Z,10.80
2022-10-26T12:11:42.989Z,11.85
2022-10-26T12:14:22.809Z,11.05
2022-10-26T12:16:59.412Z,11.38
2022-10-26T12:19:45.965Z,12.02
2022-10-26T12:22:16.412Z,11.05
2022-10-26T12:24:46.190Z,11.37
2022-10-26T12:27:49.964Z,12.07
2022-10-26T12:30:25.167Z,12.35
2022-10-26T12:33:22.640Z,12.38
2022-10-26T12:35:50.183Z,11.50
2022-10-26T12:38:31.663Z,11.35
2022-10-26T12:41:12.033Z,11.77
2022-10-26T12:43:40.820Z,12.50
2022-10-26T12:46:13.756Z,13.80
2022-10-26T12:48:51.742Z,11.55
2022-10-26T12:51:18.907Z,11.85
2022-10-26T12:53:58.063Z,11.98
2022-10-26T12:56:33.320Z,13.70
2022-10-26T12:59:33.449Z,13.63
2022-10-26T13:02:22.318Z,12.55
2022-10-26T13:05:27.353Z,13.32
2022-10-26T13:08:02.633Z,12.77
2022-10-26T13:10:29.843Z,11.38
2022-10-26T13:13:02.992Z,12.50
2022-10-26T13:15:38.810Z,11.73
2022-10-26T13:18:06.144Z,11.68
2022-10-26T13:20:36.317Z,12.38
2022-10-26T13:23:16.115Z,11.43
2022-10-26T13:26:01.022Z,11.43
2022-10-26T13:28:39.121Z,11.65
2022-10-26T13:31:18.683Z,12.32
2022-10-26T13:33:47.466Z,11.88
2022-10-26T13:36:36.515Z,12.90
2022-10-26T13:39:15.068Z,11.90
2022-10-26T13:41:45.528Z,11.57
2022-10-26T13:44:23.726Z,12.87
2022-10-26T13:46:59.424Z,10.93
2022-10-26T13:50:07.407Z,11.88
2022-10-26T13:52:43.157Z,10.70
2022-10-26T13:55:34.043Z,10.88
2022-10-26T13:58:22.426Z,11.45
2022-10-26T14:01:11.697Z,10.95
2022-10-26T14:03:39.398Z,9.15
2022-10-26T14:06:20.137Z,10.13
2022-10-26T14:08:49.553Z,11.18
2022-10-26T14:11:23.282Z,11.45
2022-10-26T14:13:51.039Z,11.60
2022-10-26T14:16:20.499Z,12.07
2022-10-26T14:18:49.383Z,10.98
2022-10-26T14:21:20.518Z,12.02
2022-10-26T14:23:58.811Z,10.20
2022-10-26T14:26:28.348Z,11.02
2022-10-26T14:29:01.641Z,11.43
2022-10-26T14:31:32.415Z,11.68
2022-10-26T14:34:01.882Z,11.25
2022-10-26T14:36:34.156Z,11.52
2022-10-26T14:39:06.539Z,11.43
2022-10-26T14:41:36.582Z,10.57
2022-10-26T14:44:04.526Z,11.82
2022-10-26T14:46:35.664Z,11.48
2022-10-26T14:49:03.701Z,10.60
2022-10-26T14:51:35.830Z,12.25
2022-10-26T14:54:04.463Z,11.63
2022-10-26T14:56:40.974Z,10.27
2022-10-26T14:59:31.828Z,11.77
2022-10-26T15:02:11.546Z,10.73
2022-10-26T15:04:56.358Z,11.32
2022-10-26T15:07:23.828Z,11.40
2022-10-26T15:09:53.594Z,10.77
2022-10-26T15:12:38.481Z,10.68
2022-10-26T15:15:14.540Z,11.80
2022-10-26T15:17:49.570Z,11.82
2022-10-26T15:20:23.265Z,11.55
2022-10-26T15:23:00.607Z,11.30
2022-10-26T15:25:33.996Z,11.68
2022-10-26T15:28:21.931Z,12.02
2022-10-26T15:31:22.733Z,11.50
2022-10-26T15:33:52.971Z,13.18
2022-10-26T15:36:27.600Z,11.05
2022-10-26T15:38:55.789Z,13.10
2022-10-26T15:41:32.189Z,11.77
2022-10-26T15:44:05.965Z,12.05
2022-10-26T15:46:36.657Z,11.77
2022-10-26T15:49:05.911Z,12.50
2022-10-26T15:51:33.363Z,11.55
2022-10-26T15:54:04.111Z,12.00
2022-10-26T15:56:32.132Z,12.57
2022-10-26T15:59:00.157Z,12.05
2022-10-26T16:01:29.631Z,10.98
2022-10-26T16:03:56.836Z,12.70
2022-10-26T16:06:28.764Z,11.15
2022-10-26T16:08:58.869Z,12.50
2022-10-26T16:11:26.528Z,12.23
2022-10-26T16:13:55.198Z,13.15
2022-10-26T16:16:24.287Z,12.07
2022-10-26T16:19:11.873Z,12.98
2022-10-26T16:24:11.257Z,10.50
2022-10-26T16:26:38.368Z,12.25
2022-10-26T16:29:05.902Z,12.57
2022-10-26T16:31:32.904Z,11.52
2022-10-26T16:34:03.244Z,11.73
2022-10-26T16:36:34.591Z,12.80
2022-10-26T16:41:31.277Z,13.45
2022-10-26T16:43:58.918Z,12.88
2022-10-26T16:46:26.289Z,13.90
2022-10-26T16:48:53.505Z,12.63
2022-10-26T16:51:26.561Z,13.15
2022-10-26T16:53:55.873Z,13.50
2022-10-26T16:56:27.183Z,14.77
2022-10-26T16:58:55.271Z,13.98
2022-10-26T17:01:23.303Z,13.65
2022-10-26T17:03:51.602Z,13.27
2022-10-26T17:06:19.832Z,13.73
2022-10-26T17:08:47.484Z,13.52
2022-10-26T17:11:19.641Z,13.93
2022-10-26T17:13:47.996Z,13.52
2022-10-26T17:16:21.551Z,14.05
2022-10-26T17:18:49.639Z,14.30
2022-10-26T17:21:18.879Z,13.98
2022-10-26T17:23:46.373Z,15.32
2022-10-26T17:26:15.226Z,14.45
2022-10-26T17:28:42.370Z,14.00
2022-10-26T17:31:13.041Z,14.52
2022-10-26T17:33:42.903Z,14.07
2022-10-26T17:36:14.231Z,13.30
2022-10-26T17:38:43.157Z,14.27
2022-10-26T17:41:12.990Z,13.05
2022-10-26T17:43:41.579Z,14.38
2022-10-26T17:46:24.293Z,13.00
2022-10-26T17:48:57.400Z,14.20
2022-10-26T17:51:25.948Z,14.70
2022-10-26T17:53:53.644Z,14.40
2022-10-26T17:56:24.758Z,15.10
2022-10-26T17:59:01.568Z,13.88
2022-10-26T18:01:29.685Z,15.75
2022-10-26T18:03:57.323Z,14.82
2022-10-26T18:06:24.762Z,14.93
2022-10-26T18:08:52.043Z,14.25
2022-10-26T18:11:26.196Z,16.33
2022-10-26T18:13:58.079Z,15.75
2022-10-26T18:16:27.132Z,13.93
2022-10-26T18:19:00.647Z,13.40
2022-10-26T18:21:29.922Z,20.35
2022-10-26T18:23:57.111Z,16.73
2022-10-26T18:26:31.322Z,18.73
2022-10-26T18:29:00.056Z,20.52
2022-10-26T18:31:28.569Z,21.23
2022-10-26T18:33:57.496Z,23.30
2022-10-26T18:36:25.329Z,20.98
2022-10-26T18:38:53.530Z,21.77
2022-10-26T18:41:21.913Z,21.23
2022-10-26T18:43:51.686Z,21.85
2022-10-26T18:46:23.636Z,20.88
2022-10-26T18:48:58.179Z,19.92
2022-10-26T18:51:30.615Z,19.90
2022-10-26T18:53:58.814Z,19.23
2022-10-26T18:56:27.296Z,20.00
2022-10-26T18:58:59.542Z,20.75
2022-10-26T19:01:32.486Z,20.45
2022-10-26T19:04:02.019Z,21.30
2022-10-26T19:06:32.401Z,20.23
2022-10-26T19:08:59.910Z,20.25
2022-10-26T19:11:28.838Z,21.23
2022-10-26T19:13:56.197Z,20.48
2022-10-26T19:16:45.353Z,20.13
2022-10-26T19:19:16.381Z,20.95
2022-10-26T19:21:45.009Z,19.35
2022-10-26T19:24:16.695Z,18.45
2022-10-26T19:26:44.436Z,20.70
2022-10-26T19:29:15.189Z,19.95
2022-10-26T19:31:47.440Z,18.45
2022-10-26T19:34:15.884Z,20.20
2022-10-26T19:36:45.156Z,19.70
2022-10-26T19:39:17.630Z,19.52
2022-10-26T19:41:46.879Z,25.30
2022-10-26T19:44:15.327Z,24.85
2022-10-26T19:46:43.697Z,23.50
2022-10-26T19:49:12.596Z,25.15
2022-10-26T19:51:40.161Z,24.90
2022-10-26T19:54:07.679Z,24.60
2022-10-26T19:56:36.571Z,24.80
2022-10-26T19:59:04.382Z,24.05
2022-10-26T20:01:31.373Z,24.05
2022-10-26T20:03:58.613Z,24.92
2022-10-26T20:06:25.528Z,27.10
2022-10-26T20:08:52.571Z,24.75
2022-10-26T20:11:20.313Z,24.98
2022-10-26T20:13:48.464Z,24.88
2022-10-26T20:16:17.433Z,22.90
2022-10-26T20:18:47.860Z,22.27
2022-10-26T20:21:17.157Z,20.70
2022-10-26T20:23:45.017Z,21.75
2022-10-26T20:26:19.575Z,21.40
2022-10-26T20:28:51.107Z,21.35
2022-10-26T20:31:18.563Z,20.88
2022-10-26T20:33:49.509Z,20.63
2022-10-26T20:36:16.591Z,21.27
2022-10-26T20:38:44.054Z,20.40
2022-10-26T20:41:14.473Z,20.67
2022-10-26T20:43:42.752Z,21.70
2022-10-26T20:46:23.635Z,21.15
2022-10-26T20:48:52.450Z,21.17
2022-10-26T20:51:26.549Z,19.02
2022-10-26T20:54:10.494Z,19.27
2022-10-26T20:56:41.718Z,20.08
2022-10-26T20:59:25.069Z,19.52
2022-10-26T21:01:52.187Z,20.00
2022-10-26T21:04:19.480Z,24.80
2022-10-26T21:06:46.578Z,19.55
2022-10-26T21:09:13.612Z,19.88
2022-10-26T21:11:40.763Z,20.17
2022-10-26T21:14:08.092Z,20.25
2022-10-26T21:16:35.000Z,21.65
2022-10-26T21:19:04.933Z,20.55
2022-10-26T21:21:31.857Z,22.08
2022-10-26T21:23:59.003Z,23.55
2022-10-26T21:26:25.899Z,23.60
2022-10-26T21:28:53.067Z,22.50
2022-10-26T21:31:21.266Z,22.33
2022-10-26T21:33:48.789Z,21.33
2022-10-26T21:36:16.837Z,21.70
2022-10-26T21:38:45.532Z,21.02
2022-10-26T21:41:15.216Z,20.77
2022-10-26T21:43:48.647Z,21.70
2022-10-26T21:46:18.761Z,21.08
2022-10-26T21:48:46.675Z,21.77
2022-10-26T21:51:16.673Z,22.13
2022-10-26T21:53:44.342Z,22.00
2022-10-26T21:56:18.738Z,23.42
2022-10-26T21:58:46.318Z,23.50
2022-10-26T22:01:18.566Z,23.40
2022-10-26T22:03:46.494Z,21.58
2022-10-26T22:06:17.010Z,21.85
2022-10-26T22:08:45.167Z,20.58
2022-10-26T22:11:18.135Z,21.63
2022-10-26T22:13:46.757Z,21.20
2022-10-26T22:16:25.493Z,22.08
2022-10-26T22:18:54.825Z,20.15
2022-10-26T22:21:25.744Z,19.25
2022-10-26T22:23:53.745Z,18.02
2022-10-26T22:26:23.447Z,20.05
2022-10-26T22:28:53.515Z,19.80
2022-10-26T22:31:26.827Z,18.92
2022-10-26T22:34:07.601Z,19.23
2022-10-26T22:36:36.036Z,19.45
2022-10-26T22:39:04.027Z,18.85
2022-10-26T22:41:31.150Z,18.40
2022-10-26T22:44:16.891Z,18.15
2022-10-26T22:46:45.261Z,18.45
2022-10-26T22:49:13.238Z,17.50
2022-10-26T22:51:40.901Z,18.55
2022-10-26T22:54:07.840Z,18.52
2022-10-26T22:56:36.369Z,17.85
2022-10-26T22:59:05.097Z,19.83
2022-10-26T23:01:36.709Z,19.48
2022-10-26T23:06:32.720Z,18.55
2022-10-26T23:08:59.855Z,19.70
2022-10-26T23:11:29.213Z,18.15
2022-10-26T23:13:58.992Z,17.50
2022-10-26T23:16:27.581Z,19.42
2022-10-26T23:18:55.525Z,18.33
2022-10-26T23:23:57.209Z,18.40
2022-10-26T23:26:24.843Z,18.85
2022-10-26T23:28:52.031Z,19.60
2022-10-26T23:31:22.495Z,19.90
2022-10-26T23:33:51.394Z,19.30
2022-10-26T23:36:19.067Z,19.98
2022-10-26T23:38:46.982Z,21.15
2022-10-26T23:41:15.091Z,21.42
2022-10-26T23:43:42.450Z,22.27
2022-10-26T23:46:09.743Z,24.42
2022-10-26T23:48:37.380Z,23.50
2022-10-26T23:51:05.086Z,24.50
2022-10-26T23:53:32.091Z,25.75
2022-10-26T23:56:17.394Z,24.48
2022-10-26T23:58:44.525Z,26.42
